createdAt,value
2018-11-06T00:00:39.402Z,9.18
2018-11-06T00:01:39.390Z,9.22
2018-11-06T00:02:39.379Z,9.16
2018-11-06T00:03:39.376Z,9.19
2018-11-06T00:04:39.369Z,9.21
2018-11-06T00:05:39.355Z,9.10
2018-11-06T00:06:39.344Z,9.21
2018-11-06T00:07:39.341Z,9.08
2018-11-06T00:08:39.334Z,9.21
2018-11-06T00:09:39.320Z,9.06
2018-11-06T00:10:39.314Z,9.18
2018-11-06T00:11:39.308Z,9.14
2018-11-06T00:12:39.298Z,9.13
2018-11-06T00:13:39.288Z,9.11
2018-11-06T00:14:39.288Z,9.18
2018-11-06T00:15:39.275Z,9.14
2018-11-06T00:16:39.265Z,9.18
2018-11-06T00:17:39.261Z,9.16
2018-11-06T00:18:39.245Z,9.14
2018-11-06T00:19:39.248Z,9.11
2018-11-06T00:20:39.230Z,9.13
2018-11-06T00:21:39.225Z,9.10
2018-11-06T00:22:39.227Z,9.10
2018-11-06T00:23:39.209Z,9.06
2018-11-06T00:24:39.205Z,9.08
2018-11-06T00:25:39.194Z,9.04
2018-11-06T00:26:39.181Z,9.00
2018-11-06T00:27:39.174Z,9.03
2018-11-06T00:28:39.168Z,9.03
2018-11-06T00:29:39.156Z,9.03
2018-11-06T00:30:39.144Z,9.02
2018-11-06T00:31:39.137Z,8.89
2018-11-06T00:32:39.133Z,8.91
2018-11-06T00:33:39.116Z,8.97
2018-11-06T00:34:39.118Z,8.99
2018-11-06T00:35:39.109Z,8.94
2018-11-06T00:36:39.096Z,8.89
2018-11-06T00:37:39.088Z,8.92
2018-11-06T00:38:39.080Z,8.87
2018-11-06T00:39:39.091Z,8.91
2018-11-06T00:40:39.062Z,8.88
2018-11-06T00:41:39.066Z,8.89
2018-11-06T00:42:39.052Z,8.88
2018-11-06T00:43:39.042Z,8.85
2018-11-06T00:44:39.027Z,8.89
2018-11-06T00:45:39.020Z,8.87
2018-11-06T00:46:39.032Z,8.91
2018-11-06T00:47:39.011Z,8.89
2018-11-06T00:48:39.011Z,8.95
2018-11-06T00:49:39.000Z,8.85
2018-11-06T00:50:38.984Z,8.88
2018-11-06T00:51:38.979Z,8.95
2018-11-06T00:52:38.963Z,8.89
2018-11-06T00:53:38.952Z,8.97
2018-11-06T00:54:38.950Z,8.92
2018-11-06T00:55:38.940Z,8.88
2018-11-06T00:56:38.940Z,8.88
2018-11-06T00:59:00.430Z,8.94
2018-11-06T01:00:08.507Z,9.04
2018-11-06T01:02:15.353Z,8.97
2018-11-06T01:02:53.959Z,8.97
2018-11-06T01:04:51.947Z,9.00
2018-11-06T01:05:47.636Z,8.97
2018-11-06T01:08:12.529Z,9.11
2018-11-06T01:09:10.279Z,9.06
2018-11-06T01:10:10.279Z,9.11
2018-11-06T01:11:10.247Z,9.10
2018-11-06T01:12:10.237Z,9.13
2018-11-06T01:13:10.229Z,9.13
2018-11-06T01:14:10.230Z,9.14
2018-11-06T01:15:10.218Z,9.13
2018-11-06T01:16:10.220Z,9.00
2018-11-06T01:17:10.212Z,9.16
2018-11-06T01:18:10.192Z,9.18
2018-11-06T01:19:10.178Z,9.16
2018-11-06T01:20:10.173Z,9.10
2018-11-06T01:21:10.167Z,9.11
2018-11-06T01:22:10.168Z,9.13
2018-11-06T01:23:10.165Z,9.10
2018-11-06T01:24:10.143Z,9.19
2018-11-06T01:25:10.139Z,9.22
2018-11-06T01:26:10.123Z,9.10
2018-11-06T01:27:10.111Z,9.19
2018-11-06T01:28:10.114Z,9.11
2018-11-06T01:29:10.100Z,9.19
2018-11-06T01:30:10.114Z,9.21
2018-11-06T01:31:10.085Z,9.21
2018-11-06T01:32:10.085Z,9.21
2018-11-06T01:33:10.066Z,9.22
2018-11-06T01:34:10.056Z,9.18
2018-11-06T01:35:10.046Z,9.11
2018-11-06T01:36:10.042Z,9.16
2018-11-06T01:37:10.032Z,9.19
2018-11-06T01:38:10.028Z,9.19
2018-11-06T01:39:10.017Z,9.25
2018-11-06T01:40:10.011Z,9.22
2018-11-06T01:41:09.993Z,9.28
2018-11-06T01:42:09.992Z,9.18
2018-11-06T01:43:09.979Z,9.29
2018-11-06T01:44:09.970Z,9.26
2018-11-06T01:45:09.963Z,9.18
2018-11-06T01:46:09.965Z,9.29
2018-11-06T01:47:09.948Z,9.21
2018-11-06T01:48:09.939Z,9.23
2018-11-06T01:49:09.934Z,9.28
2018-11-06T01:50:09.929Z,9.28
2018-11-06T01:51:09.913Z,9.28
2018-11-06T01:52:09.907Z,9.29
2018-11-06T01:53:09.928Z,9.29
2018-11-06T01:54:09.890Z,9.31
2018-11-06T01:55:09.881Z,9.19
2018-11-06T01:56:09.876Z,9.16
2018-11-06T01:57:09.904Z,9.34
2018-11-06T01:58:09.860Z,9.14
2018-11-06T01:59:09.854Z,9.19
2018-11-06T02:00:09.852Z,9.18
2018-11-06T02:01:09.839Z,9.23
2018-11-06T02:02:09.828Z,9.22
2018-11-06T02:03:09.824Z,9.21
2018-11-06T02:04:09.813Z,9.10
2018-11-06T02:05:09.802Z,9.10
2018-11-06T02:06:09.803Z,9.14
2018-11-06T02:07:09.784Z,9.16
2018-11-06T02:08:09.778Z,9.16
2018-11-06T02:09:09.778Z,9.19
2018-11-06T02:10:09.770Z,9.16
2018-11-06T02:11:09.752Z,9.14
2018-11-06T02:12:09.745Z,9.11
2018-11-06T02:13:09.741Z,9.11
2018-11-06T02:14:09.728Z,9.11
2018-11-06T02:15:09.725Z,9.00
2018-11-06T02:16:09.743Z,8.97
2018-11-06T02:17:09.712Z,9.00
2018-11-06T02:18:09.693Z,8.84
2018-11-06T02:19:09.685Z,8.92
2018-11-06T02:20:09.679Z,8.97
2018-11-06T02:21:09.678Z,8.97
2018-11-06T02:22:09.661Z,8.91
2018-11-06T02:23:09.680Z,8.88
2018-11-06T02:24:09.655Z,8.87
2018-11-06T02:25:09.634Z,8.89
2018-11-06T02:26:09.629Z,8.88
2018-11-06T02:27:09.621Z,8.87
2018-11-06T02:28:09.615Z,8.74
2018-11-06T02:29:09.598Z,8.82
2018-11-06T02:30:09.614Z,8.78
2018-11-06T02:31:09.606Z,8.76
2018-11-06T02:32:09.589Z,8.81
2018-11-06T02:33:09.616Z,8.78
2018-11-06T02:34:09.561Z,8.67
2018-11-06T02:35:09.550Z,8.61
2018-11-06T02:36:09.546Z,8.66
2018-11-06T02:37:09.563Z,8.60
2018-11-06T02:38:09.528Z,8.60
2018-11-06T02:39:09.518Z,8.61
2018-11-06T02:40:09.520Z,8.67
2018-11-06T02:41:09.513Z,8.66
2018-11-06T02:42:09.495Z,8.61
2018-11-06T02:43:09.497Z,8.61
2018-11-06T02:44:09.482Z,8.67
2018-11-06T02:45:09.478Z,8.58
2018-11-06T02:46:09.458Z,8.64
2018-11-06T02:47:09.464Z,8.64
2018-11-06T02:48:09.443Z,8.61
2018-11-06T02:49:09.436Z,8.60
2018-11-06T02:50:09.455Z,8.49
2018-11-06T02:51:09.447Z,8.58
2018-11-06T02:52:09.412Z,8.49
2018-11-06T02:53:09.402Z,8.51
2018-11-06T02:54:09.393Z,8.55
2018-11-06T02:55:09.381Z,8.58
2018-11-06T02:56:09.389Z,8.55
2018-11-06T02:57:09.393Z,8.56
2018-11-06T02:58:09.391Z,8.56
2018-11-06T02:59:09.348Z,8.51
2018-11-06T03:00:09.349Z,8.55
2018-11-06T03:01:09.332Z,8.51
2018-11-06T03:02:09.330Z,8.49
2018-11-06T03:03:09.322Z,8.49
2018-11-06T03:04:09.311Z,8.45
2018-11-06T03:05:09.317Z,8.46
2018-11-06T03:06:09.298Z,8.46
2018-11-06T03:07:09.277Z,8.36
2018-11-06T03:08:09.278Z,8.41
2018-11-06T03:09:09.259Z,8.34
2018-11-06T03:10:09.298Z,8.41
2018-11-06T03:11:09.248Z,8.44
2018-11-06T03:12:09.237Z,8.42
2018-11-06T03:13:09.230Z,8.37
2018-11-06T03:14:09.222Z,8.38
2018-11-06T03:15:09.208Z,8.38
2018-11-06T03:16:09.202Z,8.24
2018-11-06T03:17:09.195Z,8.36
2018-11-06T03:18:09.186Z,8.36
2018-11-06T03:19:09.182Z,8.27
2018-11-06T03:20:09.165Z,8.24
2018-11-06T03:21:09.153Z,8.30
2018-11-06T03:22:09.148Z,8.23
2018-11-06T03:23:09.138Z,8.13
2018-11-06T03:24:09.130Z,8.18
2018-11-06T03:25:09.123Z,8.23
2018-11-06T03:26:09.119Z,8.15
2018-11-06T03:27:09.193Z,8.12
2018-11-06T03:28:09.092Z,8.19
2018-11-06T03:29:09.097Z,8.10
2018-11-06T03:30:09.079Z,8.19
2018-11-06T03:31:09.068Z,8.13
2018-11-06T03:32:09.062Z,8.13
2018-11-06T03:33:09.051Z,8.13
2018-11-06T03:34:09.058Z,8.13
2018-11-06T03:35:09.030Z,8.18
2018-11-06T03:36:09.027Z,8.08
2018-11-06T03:37:09.016Z,8.03
2018-11-06T03:38:09.005Z,8.15
2018-11-06T03:39:08.999Z,7.98
2018-11-06T03:40:08.990Z,8.12
2018-11-06T03:41:08.977Z,8.00
2018-11-06T03:42:08.973Z,7.90
2018-11-06T03:43:08.980Z,8.03
2018-11-06T03:44:09.505Z,8.00
2018-11-06T03:45:08.952Z,7.94
2018-11-06T03:46:08.934Z,7.91
2018-11-06T03:47:08.933Z,8.03
2018-11-06T03:48:08.935Z,7.95
2018-11-06T03:49:08.916Z,7.91
2018-11-06T03:50:08.923Z,7.83
2018-11-06T03:51:08.892Z,7.97
2018-11-06T03:52:08.893Z,7.88
2018-11-06T03:53:08.874Z,7.93
2018-11-06T03:54:08.862Z,7.80
2018-11-06T03:55:08.866Z,7.90
2018-11-06T03:56:08.863Z,7.90
2018-11-06T03:57:08.841Z,7.77
2018-11-06T03:58:08.836Z,7.90
2018-11-06T03:59:08.820Z,7.87
2018-11-06T04:00:08.821Z,7.82
2018-11-06T04:01:08.806Z,7.83
2018-11-06T04:02:08.810Z,7.77
2018-11-06T04:03:08.827Z,7.82
2018-11-06T04:04:08.782Z,7.87
2018-11-06T04:05:08.768Z,7.83
2018-11-06T04:06:08.763Z,7.77
2018-11-06T04:07:08.746Z,7.82
2018-11-06T04:08:08.761Z,7.75
2018-11-06T04:09:08.751Z,7.76
2018-11-06T04:10:08.722Z,7.73
2018-11-06T04:11:08.720Z,7.75
2018-11-06T04:12:08.703Z,7.72
2018-11-06T04:13:08.699Z,7.82
2018-11-06T04:14:08.684Z,7.75
2018-11-06T04:15:08.694Z,7.79
2018-11-06T04:16:08.700Z,7.69
2018-11-06T04:17:08.661Z,7.76
2018-11-06T04:18:08.652Z,7.72
2018-11-06T04:19:08.650Z,7.75
2018-11-06T04:20:08.631Z,7.73
2018-11-06T04:21:09.516Z,7.73
2018-11-06T04:22:08.623Z,7.72
2018-11-06T04:23:08.606Z,7.69
2018-11-06T04:24:08.603Z,7.73
2018-11-06T04:25:08.592Z,7.66
2018-11-06T04:26:08.588Z,7.67
2018-11-06T04:27:08.571Z,7.72
2018-11-06T04:28:08.574Z,7.61
2018-11-06T04:29:08.558Z,7.67
2018-11-06T04:30:08.547Z,7.69
2018-11-06T04:31:08.556Z,7.61
2018-11-06T04:32:08.531Z,7.60
2018-11-06T04:33:08.522Z,7.67
2018-11-06T04:34:09.030Z,7.60
2018-11-06T04:35:08.509Z,7.56
2018-11-06T04:36:08.492Z,7.53
2018-11-06T04:37:08.491Z,7.53
2018-11-06T04:38:08.480Z,7.54
2018-11-06T04:39:08.476Z,7.54
2018-11-06T04:40:08.455Z,7.56
2018-11-06T04:41:08.447Z,7.50
2018-11-06T04:42:08.459Z,7.60
2018-11-06T04:43:08.427Z,7.58
2018-11-06T04:44:08.419Z,7.50
2018-11-06T04:45:08.422Z,7.47
2018-11-06T04:46:08.401Z,7.43
2018-11-06T04:47:08.391Z,7.43
2018-11-06T04:48:08.392Z,7.40
2018-11-06T04:49:08.367Z,7.45
2018-11-06T04:50:08.371Z,7.43
2018-11-06T04:51:08.356Z,7.45
2018-11-06T04:52:08.342Z,7.38
2018-11-06T04:53:08.333Z,7.42
2018-11-06T04:54:08.329Z,7.35
2018-11-06T04:55:08.335Z,7.32
2018-11-06T04:56:08.309Z,7.40
2018-11-06T04:57:08.299Z,7.32
2018-11-06T04:58:08.292Z,7.36
2018-11-06T04:59:08.279Z,7.36
2018-11-06T05:00:08.277Z,7.35
2018-11-06T05:01:08.281Z,7.33
2018-11-06T05:02:08.355Z,7.29
2018-11-06T05:03:08.300Z,7.35
2018-11-06T05:04:08.231Z,7.33
2018-11-06T05:05:08.265Z,7.39
2018-11-06T05:06:08.239Z,7.35
2018-11-06T05:07:08.229Z,7.36
2018-11-06T05:08:08.204Z,7.35
2018-11-06T05:09:08.187Z,7.32
2018-11-06T05:10:08.178Z,7.40
2018-11-06T05:11:08.179Z,7.39
2018-11-06T05:12:08.157Z,7.28
2018-11-06T05:13:08.157Z,7.29
2018-11-06T05:14:08.227Z,7.28
2018-11-06T05:15:08.135Z,7.29
2018-11-06T05:16:08.129Z,7.29
2018-11-06T05:17:08.129Z,7.35
2018-11-06T05:18:08.101Z,7.24
2018-11-06T05:19:08.102Z,7.38
2018-11-06T05:20:15.981Z,7.31
2018-11-06T05:23:50.318Z,7.33
2018-11-06T05:24:34.049Z,7.32
2018-11-06T05:25:34.091Z,7.23
2018-11-06T05:26:34.029Z,7.31
2018-11-06T05:27:34.153Z,7.18
2018-11-06T05:31:27.936Z,7.23
2018-11-06T05:32:27.903Z,7.23
2018-11-06T05:33:27.894Z,7.24
2018-11-06T05:34:27.898Z,7.23
2018-11-06T05:35:27.876Z,7.21
2018-11-06T05:36:27.889Z,7.20
2018-11-06T05:37:27.856Z,7.24
2018-11-06T05:38:27.845Z,7.21
2018-11-06T05:39:27.882Z,7.18
2018-11-06T05:40:27.837Z,7.15
2018-11-06T05:41:27.815Z,7.21
2018-11-06T05:42:27.808Z,7.14
2018-11-06T05:43:27.824Z,7.18
2018-11-06T05:44:27.793Z,7.15
2018-11-06T05:45:27.821Z,7.10
2018-11-06T05:46:27.773Z,7.05
2018-11-06T05:47:27.759Z,7.11
2018-11-06T05:48:27.750Z,7.10
2018-11-06T05:49:27.751Z,7.11
2018-11-06T05:50:27.767Z,7.05
2018-11-06T05:51:27.730Z,7.18
2018-11-06T05:52:27.718Z,7.21
2018-11-06T05:53:27.722Z,7.18
2018-11-06T05:54:27.694Z,7.18
2018-11-06T05:55:27.691Z,7.21
2018-11-06T05:56:27.690Z,7.23
2018-11-06T05:57:27.669Z,7.36
2018-11-06T05:58:27.712Z,7.24
2018-11-06T05:59:27.657Z,7.35
2018-11-06T06:00:27.699Z,7.39
2018-11-06T06:01:27.636Z,7.38
2018-11-06T06:02:27.634Z,7.39
2018-11-06T06:03:27.615Z,7.38
2018-11-06T06:04:27.607Z,7.35
2018-11-06T06:05:27.600Z,7.36
2018-11-06T06:06:27.587Z,7.38
2018-11-06T06:07:27.584Z,7.36
2018-11-06T06:08:27.584Z,7.36
2018-11-06T06:09:27.564Z,7.32
2018-11-06T06:10:27.556Z,7.24
2018-11-06T06:11:27.546Z,7.31
2018-11-06T06:12:27.561Z,7.18
2018-11-06T06:13:27.532Z,7.18
2018-11-06T06:14:27.512Z,7.21
2018-11-06T06:15:27.522Z,7.28
2018-11-06T06:16:27.496Z,7.20
2018-11-06T06:17:27.484Z,7.20
2018-11-06T06:18:27.482Z,7.21
2018-11-06T06:19:27.472Z,7.21
2018-11-06T06:20:27.465Z,7.21
2018-11-06T06:21:27.456Z,7.17
2018-11-06T06:22:27.475Z,7.20
2018-11-06T06:23:27.429Z,7.15
2018-11-06T06:24:27.422Z,7.15
2018-11-06T06:25:27.425Z,7.11
2018-11-06T06:26:27.404Z,7.20
2018-11-06T06:27:27.430Z,7.07
2018-11-06T06:28:27.525Z,7.20
2018-11-06T06:29:27.380Z,7.18
2018-11-06T06:30:27.369Z,7.20
2018-11-06T06:31:27.361Z,7.20
2018-11-06T06:32:27.350Z,7.20
2018-11-06T06:33:27.360Z,7.20
2018-11-06T06:34:27.351Z,7.23
2018-11-06T06:35:27.354Z,7.18
2018-11-06T06:36:27.321Z,7.18
2018-11-06T06:37:27.302Z,7.25
2018-11-06T06:38:27.302Z,7.21
2018-11-06T06:39:27.284Z,7.18
2018-11-06T06:40:27.292Z,7.21
2018-11-06T06:41:27.299Z,7.21
2018-11-06T06:42:27.258Z,7.28
2018-11-06T06:43:27.254Z,7.29
2018-11-06T06:44:27.248Z,7.14
2018-11-06T06:45:27.232Z,7.18
2018-11-06T06:46:27.292Z,7.24
2018-11-06T06:47:27.241Z,7.20
2018-11-06T06:48:27.218Z,7.21
2018-11-06T06:49:27.197Z,7.33
2018-11-06T06:50:27.186Z,7.31
2018-11-06T06:51:27.174Z,7.29
2018-11-06T06:52:27.175Z,7.29
2018-11-06T06:53:27.168Z,7.32
2018-11-06T06:54:27.421Z,7.35
2018-11-06T06:55:27.163Z,7.39
2018-11-06T06:56:27.130Z,7.40
2018-11-06T06:57:27.133Z,7.38
2018-11-06T06:58:27.110Z,7.45
2018-11-06T06:59:27.125Z,7.50
2018-11-06T07:00:27.096Z,7.53
2018-11-06T07:01:27.101Z,7.45
2018-11-06T07:02:27.099Z,7.53
2018-11-06T07:03:27.069Z,7.58
2018-11-06T07:04:27.062Z,7.53
2018-11-06T07:05:27.049Z,7.53
2018-11-06T07:06:27.059Z,7.53
2018-11-06T07:07:27.041Z,7.48
2018-11-06T07:08:27.028Z,7.56
2018-11-06T07:09:27.030Z,7.50
2018-11-06T07:10:27.001Z,7.51
2018-11-06T07:11:26.998Z,7.54
2018-11-06T07:12:26.985Z,7.57
2018-11-06T07:13:26.983Z,7.51
2018-11-06T07:14:26.967Z,7.56
2018-11-06T07:15:26.967Z,7.56
2018-11-06T07:16:26.951Z,7.54
2018-11-06T07:17:26.953Z,7.58
2018-11-06T07:18:26.945Z,7.56
2018-11-06T07:19:26.933Z,7.54
2018-11-06T07:20:26.943Z,7.50
2018-11-06T07:21:26.904Z,7.48
2018-11-06T07:22:26.895Z,7.56
2018-11-06T07:23:26.884Z,7.53
2018-11-06T07:24:26.876Z,7.58
2018-11-06T07:25:26.884Z,7.60
2018-11-06T07:26:26.876Z,7.54
2018-11-06T07:27:26.861Z,7.54
2018-11-06T07:28:26.848Z,7.60
2018-11-06T07:29:26.850Z,7.54
2018-11-06T07:30:26.835Z,7.53
2018-11-06T07:31:26.832Z,7.58
2018-11-06T07:32:26.820Z,7.58
2018-11-06T07:33:26.807Z,7.73
2018-11-06T07:34:26.835Z,7.67
2018-11-06T07:35:26.967Z,7.61
2018-11-06T07:36:26.774Z,7.66
2018-11-06T07:37:26.758Z,7.61
2018-11-06T07:38:26.754Z,7.69
2018-11-06T07:39:26.757Z,7.69
2018-11-06T07:40:26.804Z,7.75
2018-11-06T07:41:26.728Z,7.72
2018-11-06T07:42:26.719Z,7.79
2018-11-06T07:43:26.711Z,7.77
2018-11-06T07:44:26.703Z,7.72
2018-11-06T07:45:26.689Z,7.75
2018-11-06T07:46:26.692Z,7.82
2018-11-06T07:47:26.674Z,7.83
2018-11-06T07:48:26.665Z,7.90
2018-11-06T07:49:26.653Z,7.80
2018-11-06T07:50:26.670Z,7.85
2018-11-06T07:51:26.647Z,7.91
2018-11-06T07:52:26.629Z,7.87
2018-11-06T07:53:26.626Z,7.91
2018-11-06T07:54:26.609Z,7.90
2018-11-06T07:55:26.629Z,8.00
2018-11-06T07:56:26.595Z,7.95
2018-11-06T07:57:26.591Z,7.97
2018-11-06T07:58:26.611Z,8.08
2018-11-06T07:59:26.576Z,8.09
2018-11-06T08:00:26.562Z,7.98
2018-11-06T08:01:27.324Z,8.10
2018-11-06T08:02:26.540Z,8.13
2018-11-06T08:03:26.542Z,8.12
2018-11-06T08:04:26.624Z,8.12
2018-11-06T08:05:26.533Z,8.09
2018-11-06T08:06:26.614Z,8.09
2018-11-06T08:07:26.502Z,8.13
2018-11-06T08:08:26.511Z,8.16
2018-11-06T08:09:26.518Z,8.15
2018-11-06T08:10:26.477Z,8.20
2018-11-06T08:11:26.484Z,8.23
2018-11-06T08:12:26.466Z,8.24
2018-11-06T08:13:26.453Z,8.28
2018-11-06T08:14:26.452Z,8.23
2018-11-06T08:15:26.434Z,8.23
2018-11-06T08:16:26.422Z,8.34
2018-11-06T08:17:26.416Z,8.31
2018-11-06T08:18:26.407Z,8.31
2018-11-06T08:19:26.397Z,8.31
2018-11-06T08:20:26.438Z,8.36
2018-11-06T08:21:26.386Z,8.38
2018-11-06T08:22:26.374Z,8.41
2018-11-06T08:23:26.368Z,8.41
2018-11-06T08:24:26.373Z,8.44
2018-11-06T08:25:26.370Z,8.46
2018-11-06T08:26:26.385Z,8.45
2018-11-06T08:27:26.366Z,8.36
2018-11-06T08:28:26.346Z,8.51
2018-11-06T08:29:26.316Z,8.53
2018-11-06T08:30:26.378Z,8.61
2018-11-06T08:31:26.675Z,8.63
2018-11-06T08:32:26.651Z,8.63
2018-11-06T08:33:26.294Z,8.66
2018-11-06T08:34:26.280Z,8.70
2018-11-06T08:35:26.275Z,8.78
2018-11-06T08:36:26.298Z,8.82
2018-11-06T08:37:26.262Z,8.70
2018-11-06T08:38:26.256Z,8.89
2018-11-06T08:39:26.271Z,8.89
2018-11-06T08:40:26.262Z,9.03
2018-11-06T08:41:26.227Z,9.13
2018-11-06T08:42:26.262Z,9.13
2018-11-06T08:43:26.216Z,9.21
2018-11-06T08:44:26.203Z,9.16
2018-11-06T08:45:26.195Z,9.22
2018-11-06T08:46:26.186Z,9.31
2018-11-06T08:47:26.216Z,9.36
2018-11-06T08:48:26.177Z,9.34
2018-11-06T08:49:26.170Z,9.41
2018-11-06T08:50:26.186Z,9.50
2018-11-06T08:51:26.161Z,9.56
2018-11-06T08:52:26.157Z,9.66
2018-11-06T08:53:26.162Z,9.76
2018-11-06T08:54:26.261Z,9.86
2018-11-06T08:55:26.158Z,9.99
2018-11-06T08:56:26.123Z,10.12
2018-11-06T08:57:26.116Z,10.20
2018-11-06T08:58:26.106Z,10.30
2018-11-06T08:59:26.102Z,10.59
2018-11-06T09:00:26.109Z,10.74
2018-11-06T09:01:26.097Z,10.96
2018-11-06T09:02:26.142Z,11.07
2018-11-06T09:03:26.096Z,11.18
2018-11-06T09:04:26.088Z,11.45
2018-11-06T09:05:26.077Z,11.44
2018-11-06T09:06:26.072Z,11.59
2018-11-06T09:07:26.066Z,11.68
2018-11-06T09:08:26.058Z,11.84
2018-11-06T09:09:26.072Z,11.91
2018-11-06T09:10:26.057Z,12.03
2018-11-06T09:11:26.066Z,12.22
2018-11-06T09:12:26.050Z,12.32
2018-11-06T09:13:26.052Z,12.29
2018-11-06T09:14:26.056Z,12.43
2018-11-06T09:15:26.050Z,12.53
2018-11-06T09:16:26.041Z,12.61
2018-11-06T09:17:26.041Z,12.62
2018-11-06T09:18:26.034Z,12.80
2018-11-06T09:19:26.038Z,12.97
2018-11-06T09:20:26.041Z,13.11
2018-11-06T09:21:26.030Z,13.08
2018-11-06T09:22:26.059Z,13.15
2018-11-06T09:23:26.034Z,13.38
2018-11-06T09:24:26.030Z,13.57
2018-11-06T09:25:26.040Z,13.79
2018-11-06T09:26:26.026Z,13.87
2018-11-06T09:27:26.026Z,13.99
2018-11-06T09:28:26.022Z,14.03
2018-11-06T09:29:26.024Z,14.12
2018-11-06T09:30:26.030Z,14.20
2018-11-06T09:31:26.031Z,14.17
2018-11-06T09:32:26.024Z,14.32
2018-11-06T09:33:26.026Z,14.51
2018-11-06T09:34:26.025Z,14.51
2018-11-06T09:35:26.025Z,14.60
2018-11-06T09:36:26.033Z,14.65
2018-11-06T09:37:26.041Z,14.70
2018-11-06T09:38:26.046Z,14.65
2018-11-06T09:39:26.046Z,14.60
2018-11-06T09:40:26.026Z,14.77
2018-11-06T09:41:26.071Z,14.85
2018-11-06T09:42:26.027Z,14.81
2018-11-06T09:43:26.029Z,14.82
2018-11-06T09:44:26.031Z,14.78
2018-11-06T09:45:26.046Z,14.77
2018-11-06T09:46:26.024Z,14.65
2018-11-06T09:47:26.027Z,14.62
2018-11-06T09:48:26.023Z,14.54
2018-11-06T09:49:26.033Z,14.53
2018-11-06T09:50:26.025Z,14.58
2018-11-06T09:51:26.053Z,14.51
2018-11-06T09:52:26.024Z,14.53
2018-11-06T09:53:26.026Z,14.44
2018-11-06T09:54:26.041Z,14.55
2018-11-06T09:55:26.046Z,14.53
2018-11-06T09:56:26.030Z,14.60
2018-11-06T09:57:26.022Z,14.73
2018-11-06T09:58:26.020Z,15.02
2018-11-06T09:59:26.025Z,15.25
2018-11-06T10:00:26.026Z,15.36
2018-11-06T10:01:26.021Z,15.27
2018-11-06T10:02:26.020Z,15.25
2018-11-06T10:03:26.022Z,15.21
2018-11-06T10:04:26.018Z,15.17
2018-11-06T10:05:26.045Z,15.25
2018-11-06T10:06:26.065Z,15.18
2018-11-06T10:07:26.210Z,15.35
2018-11-06T10:08:26.071Z,15.35
2018-11-06T10:09:26.025Z,15.37
2018-11-06T10:10:26.075Z,15.25
2018-11-06T10:11:26.109Z,15.49
2018-11-06T10:12:26.025Z,15.58
2018-11-06T10:13:26.018Z,15.72
2018-11-06T10:14:26.022Z,15.83
2018-11-06T10:15:26.066Z,15.94
2018-11-06T10:16:26.017Z,16.01
2018-11-06T10:17:26.016Z,16.10
2018-11-06T10:18:26.021Z,16.13
2018-11-06T10:19:26.023Z,16.24
2018-11-06T10:20:26.019Z,16.20
2018-11-06T10:21:26.067Z,16.29
2018-11-06T10:22:26.020Z,16.38
2018-11-06T10:23:26.020Z,16.33
2018-11-06T10:24:26.025Z,16.33
2018-11-06T10:25:26.043Z,16.28
2018-11-06T10:26:26.050Z,16.23
2018-11-06T10:27:26.023Z,16.05
2018-11-06T10:28:26.021Z,16.01
2018-11-06T10:29:26.019Z,15.95
2018-11-06T10:30:26.017Z,15.84
2018-11-06T10:31:26.016Z,15.77
2018-11-06T10:32:26.018Z,15.73
2018-11-06T10:33:26.022Z,15.67
2018-11-06T10:34:26.042Z,15.59
2018-11-06T10:35:26.038Z,15.47
2018-11-06T10:36:26.013Z,15.46
2018-11-06T10:37:26.025Z,15.31
2018-11-06T10:38:26.016Z,15.31
2018-11-06T10:39:26.015Z,15.24
2018-11-06T10:40:26.050Z,15.19
2018-11-06T10:41:26.010Z,15.25
2018-11-06T10:42:26.038Z,15.31
2018-11-06T10:43:26.016Z,15.28
2018-11-06T10:44:26.005Z,15.31
2018-11-06T10:45:26.008Z,15.24
2018-11-06T10:46:26.002Z,15.25
2018-11-06T10:47:26.009Z,15.19
2018-11-06T10:48:25.996Z,15.09
2018-11-06T10:49:26.008Z,15.07
2018-11-06T10:50:26.010Z,15.10
2018-11-06T10:51:25.994Z,15.10
2018-11-06T10:52:25.993Z,15.00
2018-11-06T10:53:25.989Z,15.02
2018-11-06T10:54:25.993Z,14.92
2018-11-06T10:55:25.999Z,14.94
2018-11-06T10:56:25.987Z,14.94
2018-11-06T10:57:25.987Z,14.92
2018-11-06T10:58:25.983Z,14.92
2018-11-06T10:59:25.982Z,14.99
2018-11-06T11:00:26.012Z,15.03
2018-11-06T11:01:25.967Z,15.02
2018-11-06T11:02:25.968Z,15.14
2018-11-06T11:03:25.966Z,15.21
2018-11-06T11:04:25.964Z,15.21
2018-11-06T11:05:25.963Z,15.29
2018-11-06T11:06:25.976Z,15.35
2018-11-06T11:07:25.956Z,15.55
2018-11-06T11:08:25.958Z,15.57
2018-11-06T11:09:25.971Z,15.73
2018-11-06T11:10:25.946Z,15.92
2018-11-06T11:11:25.952Z,16.08
2018-11-06T11:12:25.969Z,16.20
2018-11-06T11:13:26.012Z,16.26
2018-11-06T11:14:25.997Z,16.28
2018-11-06T11:15:25.961Z,16.35
2018-11-06T11:16:25.942Z,16.26
2018-11-06T11:17:25.967Z,16.31
2018-11-06T11:18:25.945Z,16.31
2018-11-06T11:19:25.939Z,16.32
2018-11-06T11:20:25.937Z,16.36
2018-11-06T11:21:25.936Z,16.49
2018-11-06T11:22:25.957Z,16.49
2018-11-06T11:23:25.932Z,16.54
2018-11-06T11:24:25.934Z,16.57
2018-11-06T11:25:26.030Z,16.58
2018-11-06T11:26:25.945Z,16.57
2018-11-06T11:27:25.951Z,16.54
2018-11-06T11:28:25.928Z,16.69
2018-11-06T11:29:25.945Z,16.75
2018-11-06T11:30:25.932Z,16.76
2018-11-06T11:31:25.990Z,16.83
2018-11-06T11:32:25.933Z,16.84
2018-11-06T11:33:25.936Z,16.81
2018-11-06T11:34:25.950Z,16.86
2018-11-06T11:35:25.928Z,16.87
2018-11-06T11:36:25.962Z,17.02
2018-11-06T11:37:25.921Z,16.94
2018-11-06T11:38:25.933Z,16.99
2018-11-06T11:39:25.933Z,16.90
2018-11-06T11:40:25.936Z,16.89
2018-11-06T11:41:25.947Z,17.01
2018-11-06T11:42:25.924Z,16.87
2018-11-06T11:43:25.922Z,17.01
2018-11-06T11:44:25.931Z,16.96
2018-11-06T11:45:25.921Z,16.96
2018-11-06T11:46:25.925Z,17.02
2018-11-06T11:47:25.928Z,17.05
2018-11-06T11:48:25.927Z,17.01
2018-11-06T11:49:25.926Z,17.04
2018-11-06T11:50:25.927Z,17.02
2018-11-06T11:51:25.917Z,16.97
2018-11-06T11:52:25.948Z,16.89
2018-11-06T11:53:25.919Z,16.90
2018-11-06T11:54:25.918Z,16.79
2018-11-06T11:55:25.922Z,16.79
2018-11-06T11:56:25.938Z,16.86
2018-11-06T11:57:25.915Z,16.74
2018-11-06T11:58:25.917Z,16.66
2018-11-06T11:59:25.910Z,16.69
2018-11-06T12:00:25.912Z,16.66
2018-11-06T12:01:25.908Z,16.57
2018-11-06T12:02:25.926Z,16.66
2018-11-06T12:03:25.927Z,16.57
2018-11-06T12:04:25.908Z,16.56
2018-11-06T12:05:25.900Z,16.66
2018-11-06T12:06:25.905Z,16.50
2018-11-06T12:07:25.927Z,16.64
2018-11-06T12:08:25.902Z,16.58
2018-11-06T12:09:25.907Z,16.54
2018-11-06T12:10:25.890Z,16.57
2018-11-06T12:11:25.892Z,16.57
2018-11-06T12:12:25.886Z,16.50
2018-11-06T12:13:25.891Z,16.42
2018-11-06T12:14:25.892Z,16.35
2018-11-06T12:15:25.911Z,16.31
2018-11-06T12:16:25.879Z,16.31
2018-11-06T12:17:25.945Z,16.42
2018-11-06T12:18:25.911Z,16.36
2018-11-06T12:19:25.891Z,16.31
2018-11-06T12:20:25.867Z,16.33
2018-11-06T12:21:25.863Z,16.31
2018-11-06T12:22:25.865Z,16.31
2018-11-06T12:23:25.872Z,16.35
2018-11-06T12:24:25.929Z,16.38
2018-11-06T12:25:26.171Z,16.35
2018-11-06T12:26:25.852Z,16.39
2018-11-06T12:27:25.851Z,16.41
2018-11-06T12:28:25.857Z,16.36
2018-11-06T12:29:25.870Z,16.33
2018-11-06T12:30:25.872Z,16.38
2018-11-06T12:31:25.839Z,16.49
2018-11-06T12:32:25.888Z,16.50
2018-11-06T12:33:25.843Z,16.43
2018-11-06T12:34:25.825Z,16.42
2018-11-06T12:35:25.828Z,16.47
2018-11-06T12:36:25.874Z,16.47
2018-11-06T12:37:25.813Z,16.43
2018-11-06T12:38:25.816Z,16.57
2018-11-06T12:39:25.812Z,16.56
2018-11-06T12:40:25.811Z,16.64
2018-11-06T12:41:25.810Z,16.61
2018-11-06T12:42:25.798Z,16.51
2018-11-06T12:43:25.852Z,16.58
2018-11-06T12:44:25.795Z,16.56
2018-11-06T12:45:25.812Z,16.74
2018-11-06T12:46:25.810Z,16.69
2018-11-06T12:47:25.781Z,16.66
2018-11-06T12:48:25.778Z,16.72
2018-11-06T12:49:25.787Z,16.71
2018-11-06T12:50:25.854Z,16.68
2018-11-06T12:51:25.781Z,16.74
2018-11-06T12:52:25.767Z,16.78
2018-11-06T12:53:25.766Z,16.71
2018-11-06T12:54:25.761Z,16.84
2018-11-06T12:55:25.760Z,16.86
2018-11-06T12:56:25.769Z,16.79
2018-11-06T12:57:25.752Z,16.84
2018-11-06T12:58:25.750Z,16.83
2018-11-06T12:59:25.743Z,17.01
2018-11-06T13:00:25.744Z,16.97
2018-11-06T13:01:25.770Z,17.01
2018-11-06T13:02:25.735Z,17.01
2018-11-06T13:03:25.840Z,17.12
2018-11-06T13:04:25.731Z,17.04
2018-11-06T13:05:25.726Z,17.12
2018-11-06T13:06:25.725Z,17.06
2018-11-06T13:07:25.738Z,17.16
2018-11-06T13:08:25.718Z,17.09
2018-11-06T13:09:25.762Z,17.11
2018-11-06T13:10:25.709Z,17.12
2018-11-06T13:11:25.730Z,17.19
2018-11-06T13:12:25.741Z,17.15
2018-11-06T13:13:25.701Z,17.19
2018-11-06T13:14:25.700Z,17.19
2018-11-06T13:15:25.752Z,17.26
2018-11-06T13:16:25.698Z,17.22
2018-11-06T13:17:25.700Z,17.11
2018-11-06T13:18:25.685Z,17.19
2018-11-06T13:19:25.685Z,17.15